Time;durP1;ratioP1;P1;durP2;ratioP2;P2;SDS_P1;SDS_P2;PMS_P1;PMS_P2;Temp;Humidity;BMP_temperature;BMP_pressure;BME280_temperature;BME280_humidity;BME280_pressure;Samples;Min_cycle;Max_cycle;Signal;HPM_P1;HPM_P2
2021/12/19 00:00:13;;;;;;;10.68;5.20;;;7.30;99.90;;;;;;6307488;22;20015;-81
2021/12/19 00:03:08;;;;;;;10.48;5.47;;;7.30;99.90;;;;;;6307609;22;20334;-82
2021/12/19 00:08:57;;;;;;;13.25;6.63;;;8.10;99.90;;;;;;6307357;22;20080;-82
2021/12/19 00:11:41;;;;;;;11.30;6.28;;;7.30;99.90;;;;;;6305686;22;20060;-82
2021/12/19 00:14:25;;;;;;;;;;;8.20;99.90;;;;;;6306566;22;20112;-82
2021/12/19 00:17:10;;;;;;;12.05;6.00;;;7.30;99.90;;;;;;6307750;22;20329;-82
2021/12/19 00:19:54;;;;;;;;;;;7.40;99.90;;;;;;6308717;22;20034;-82
2021/12/19 00:22:38;;;;;;;13.45;6.28;;;7.30;99.90;;;;;;6305837;22;19949;-82
2021/12/19 00:25:22;;;;;;;9.90;6.53;;;7.60;99.90;;;;;;6307539;22;20018;-81
2021/12/19 00:28:06;;;;;;;;;;;7.30;99.90;;;;;;6307887;22;20060;-81
2021/12/19 00:30:50;;;;;;;12.85;6.97;;;7.40;99.90;;;;;;6306770;22;19945;-82
2021/12/19 00:33:35;;;;;;;13.95;7.50;;;7.90;99.90;;;;;;6305439;22;20086;-81
2021/12/19 00:36:20;;;;;;;11.90;7.00;;;7.40;99.90;;;;;;6307497;22;20123;-81
2021/12/19 00:39:05;;;;;;;12.10;7.30;;;7.40;99.90;;;;;;6305935;22;20065;-81
2021/12/19 00:41:52;;;;;;;16.00;7.95;;;7.40;99.90;;;;;;6305340;22;20026;-81
2021/12/19 00:44:37;;;;;;;14.85;7.00;;;7.40;99.90;;;;;;6306120;22;20026;-82
2021/12/19 00:47:22;;;;;;;14.70;7.18;;;7.40;99.90;;;;;;6307176;22;20018;-81
2021/12/19 00:50:06;;;;;;;;;;;7.40;99.90;;;;;;6306114;22;20054;-82
2021/12/19 00:52:51;;;;;;;13.43;6.97;;;7.40;99.90;;;;;;6306593;22;19960;-82
2021/12/19 00:55:36;;;;;;;13.65;7.50;;;7.40;99.90;;;;;;6305348;22;20061;-82
2021/12/19 00:58:21;;;;;;;17.85;8.73;;;;;;;;;;6307210;22;20018;-81
2021/12/19 01:01:07;;;;;;;18.27;8.25;;;7.40;99.90;;;;;;6305906;22;20069;-81
2021/12/19 01:03:52;;;;;;;18.10;8.23;;;7.40;99.90;;;;;;6305265;22;20568;-81
2021/12/19 01:06:42;;;;;;;16.73;8.55;;;7.40;99.90;;;;;;6306513;22;20064;-81
2021/12/19 01:09:27;;;;;;;15.05;7.18;;;7.70;99.90;;;;;;6306063;22;20026;-81
2021/12/19 01:12:10;;;;;;;6.63;3.72;;;7.40;99.90;;;;;;6305873;22;20456;-81
2021/12/19 01:14:55;;;;;;;9.18;3.22;;;7.40;99.90;;;;;;6305201;22;20030;-81
2021/12/19 01:17:39;;;;;;;;;;;7.40;99.90;;;;;;6306834;22;20456;-81
2021/12/19 01:20:26;;;;;;;8.68;3.10;;;7.40;99.90;;;;;;6305656;22;19910;-81
2021/12/19 01:23:11;;;;;;;9.70;3.13;;;7.80;99.90;;;;;;6306962;22;20060;-81
2021/12/19 01:25:55;;;;;;;10.57;2.72;;;7.40;99.90;;;;;;6306333;22;20090;-81
2021/12/19 01:28:39;;;;;;;;;;;7.40;99.90;;;;;;6306719;22;20014;-82
2021/12/19 01:31:23;;;;;;;;;;;7.40;99.90;;;;;;6307218;22;19913;-82
2021/12/19 01:34:12;;;;;;;4.13;2.45;;;7.90;99.90;;;;;;6305743;22;19918;-82
2021/12/19 01:36:57;;;;;;;7.70;2.45;;;;;;;;;;6284010;22;20014;-82
2021/12/19 01:39:41;;;;;;;6.65;2.38;;;7.40;99.90;;;;;;6306321;22;20342;-82
2021/12/19 01:42:34;;;;;;;2.80;1.50;;;7.60;99.90;;;;;;6305551;22;20069;-82
2021/12/19 01:45:23;;;;;;;4.90;1.52;;;7.30;99.90;;;;;;6305604;22;20010;-82
2021/12/19 01:48:10;;;;;;;4.22;1.85;;;7.30;99.90;;;;;;6307042;22;20326;-81
2021/12/19 01:50:55;;;;;;;5.88;1.77;;;7.20;99.90;;;;;;6306058;22;20046;-81
2021/12/19 01:53:40;;;;;;;2.88;1.30;;;7.20;99.90;;;;;;6305027;22;20069;-82
2021/12/19 01:56:24;;;;;;;;;;;7.30;99.90;;;;;;6307648;22;20103;-81
2021/12/19 01:59:10;;;;;;;2.38;1.13;;;7.30;99.90;;;;;;6308796;22;19913;-81
2021/12/19 02:01:55;;;;;;;1.75;1.00;;;7.20;99.90;;;;;;6306987;22;20010;-81
2021/12/19 02:04:42;;;;;;;2.22;1.00;;;7.20;99.90;;;;;;6308601;22;20010;-81
2021/12/19 02:07:28;;;;;;;2.28;1.20;;;7.20;99.90;;;;;;6307485;22;20061;-81
2021/12/19 02:10:18;;;;;;;3.75;1.50;;;7.20;99.90;;;;;;6308219;22;20395;-80
2021/12/19 02:13:04;;;;;;;4.22;2.17;;;7.30;99.90;;;;;;6308037;22;20010;-80
2021/12/19 02:15:50;;;;;;;3.67;1.35;;;;;;;;;;6308126;22;20091;-81
2021/12/19 02:18:34;;;;;;;2.97;1.40;;;7.20;99.90;;;;;;6307266;22;20014;-80
2021/12/19 02:21:18;;;;;;;2.13;1.17;;;7.20;99.90;;;;;;6308558;22;20041;-80
2021/12/19 02:24:06;;;;;;;2.13;0.90;;;7.20;99.90;;;;;;6307929;22;20072;-80
2021/12/19 02:26:51;;;;;;;3.55;1.10;;;7.20;99.90;;;;;;6306784;22;20334;-81
2021/12/19 02:29:35;;;;;;;1.95;1.08;;;7.30;99.90;;;;;;6307216;22;20025;-80
2021/12/19 02:32:19;;;;;;;;;;;7.20;99.90;;;;;;6307835;22;20014;-81
2021/12/19 02:35:07;;;;;;;2.28;1.00;;;7.60;99.90;;;;;;6307917;22;20025;-81
2021/12/19 02:50:03;;;;;;;2.30;1.25;;;7.20;99.90;;;;;;6307532;22;20026;-81
2021/12/19 02:52:48;;;;;;;4.05;1.40;;;;;;;;;;6307713;22;20014;-81
2021/12/19 02:55:32;;;;;;;2.38;1.30;;;7.10;99.90;;;;;;6308202;22;20361;-81
2021/12/19 02:58:16;;;;;;;2.05;1.20;;;7.10;99.90;;;;;;6285064;22;20018;-81
2021/12/19 03:01:04;;;;;;;3.75;1.27;;;7.20;99.90;;;;;;6306374;22;20034;-81
2021/12/19 03:03:49;;;;;;;5.00;1.40;;;;;;;;;;6306409;22;20014;-82
2021/12/19 03:06:34;;;;;;;2.65;1.02;;;7.10;99.90;;;;;;6307585;22;20084;-81
2021/12/19 03:09:40;;;;;;;2.13;0.95;;;7.30;99.90;;;;;;6307681;22;20027;-81
2021/12/19 03:18:17;;;;;;;2.30;1.10;;;7.30;99.90;;;;;;6307834;22;20014;-81
2021/12/19 03:21:01;;;;;;;2.80;1.10;;;7.20;99.90;;;;;;6307450;22;20030;-81
2021/12/19 03:23:46;;;;;;;3.30;1.02;;;7.10;99.90;;;;;;6307841;22;20018;-80
2021/12/19 03:26:30;;;;;;;;;;;7.10;99.90;;;;;;6306887;22;20064;-81
2021/12/19 03:29:14;;;;;;;2.17;1.10;;;;;;;;;;6305946;22;20336;-81
2021/12/19 03:31:58;;;;;;;4.85;1.40;;;7.10;99.90;;;;;;6306203;22;20053;-81
2021/12/19 03:34:42;;;;;;;;;;;7.10;99.90;;;;;;6308306;22;20094;-80
2021/12/19 03:37:27;;;;;;;2.10;1.10;;;7.10;99.90;;;;;;6307930;22;20001;-81
2021/12/19 03:40:21;;;;;;;2.45;1.13;;;7.00;99.90;;;;;;6307239;22;20064;-81
2021/12/19 03:43:13;;;;;;;;;;;7.00;99.90;;;;;;6307937;22;20045;-81
2021/12/19 03:45:58;;;;;;;2.38;0.85;;;;;;;;;;6307300;22;19933;-81
2021/12/19 03:48:42;;;;;;;2.65;1.20;;;7.00;99.90;;;;;;6307679;22;20072;-80
2021/12/19 03:51:26;;;;;;;;;;;7.30;99.90;;;;;;6308063;22;20102;-81
2021/12/19 03:54:11;;;;;;;3.00;1.05;;;7.00;99.90;;;;;;6307046;22;19948;-80
2021/12/19 03:56:55;;;;;;;;;;;6.90;99.90;;;;;;6308022;22;20014;-81
2021/12/19 03:59:41;;;;;;;6.40;1.23;;;6.80;99.90;;;;;;6307622;22;19910;-81
2021/12/19 04:02:27;;;;;;;3.83;1.00;;;6.80;99.90;;;;;;6307597;22;20068;-81
2021/12/19 04:05:12;;;;;;;4.20;2.15;;;;;;;;;;6306968;22;20084;-80
2021/12/19 04:07:56;;;;;;;5.03;1.40;;;6.80;99.90;;;;;;6306167;22;20026;-82
2021/12/19 04:10:55;;;;;;;3.25;1.10;;;;;;;;;;5089517;27;20401;-79
2021/12/19 04:13:40;;;;;;;3.45;1.40;;;6.80;99.90;;;;;;5089461;28;20043;-80
2021/12/19 04:16:24;;;;;;;3.63;1.70;;;7.20;99.90;;;;;;5088429;28;20038;-80
2021/12/19 04:19:09;;;;;;;5.70;1.70;;;6.80;99.90;;;;;;5087970;28;20071;-80
2021/12/19 04:21:54;;;;;;;8.88;2.42;;;7.50;99.90;;;;;;5074286;28;20443;-79
2021/12/19 04:24:39;;;;;;;3.63;1.75;;;7.50;99.90;;;;;;5088527;28;20035;-80
2021/12/19 04:27:23;;;;;;;2.75;1.63;;;6.70;99.90;;;;;;5088924;28;20043;-80
2021/12/19 04:30:10;;;;;;;2.75;1.30;;;7.40;99.90;;;;;;5087652;28;20110;-80
2021/12/19 04:33:04;;;;;;;3.90;1.83;;;6.80;99.90;;;;;;5089288;28;20095;-80
2021/12/19 04:35:48;;;;;;;3.50;1.42;;;6.70;99.90;;;;;;5088213;28;20058;-80
2021/12/19 04:50:51;;;;;;;5.03;2.28;;;6.80;99.90;;;;;;5088531;28;20086;-80
2021/12/19 04:51:05;;;;;;;11.63;2.97;;;;;;;;;;5088843;28;20051;-80
2021/12/19 04:54:13;;;;;;;6.55;2.67;;;6.80;99.90;;;;;;5088171;28;20050;-80
2021/12/19 05:02:59;;;;;;;8.30;3.67;;;;;;;;;;5088937;28;20046;-83
2021/12/19 05:14:37;;;;;;;12.18;3.75;;;6.80;99.90;;;;;;5088916;28;20070;-83
2021/12/19 05:17:25;;;;;;;15.65;4.47;;;7.20;99.90;;;;;;5087095;28;20506;-83
2021/12/19 05:20:17;;;;;;;20.02;5.68;;;7.60;99.90;;;;;;5072012;28;20089;-83
2021/12/19 05:23:11;;;;;;;17.15;4.38;;;;;;;;;;5074204;28;20090;-83
2021/12/19 05:25:56;;;;;;;16.40;4.93;;;;;;;;;;5075047;28;20086;-83
2021/12/19 05:28:40;;;;;;;13.18;4.38;;;6.90;99.90;;;;;;5074838;28;20047;-83
2021/12/19 05:31:25;;;;;;;12.95;4.45;;;;;;;;;;5073428;28;20040;-83
2021/12/19 05:34:10;;;;;;;16.13;4.57;;;;;;;;;;5073580;28;20039;-84
2021/12/19 05:46:05;;;;;;;18.58;6.95;;;7.00;99.90;;;;;;5074642;28;20128;-83
2021/12/19 05:48:49;;;;;;;18.23;5.68;;;7.00;99.90;;;;;;5074530;28;20404;-82
2021/12/19 05:51:36;;;;;;;22.42;6.15;;;7.00;99.90;;;;;;5072985;28;20504;-83
2021/12/19 05:54:20;;;;;;;19.20;6.80;;;7.00;99.90;;;;;;5073943;28;20082;-83
2021/12/19 05:57:04;;;;;;;;;;;7.80;99.90;;;;;;5059753;28;20035;-83
2021/12/19 05:59:50;;;;;;;23.00;8.20;;;;;;;;;;5073430;28;19938;-83
2021/12/19 06:02:35;;;;;;;22.95;8.85;;;7.00;99.90;;;;;;5072728;28;20135;-83
2021/12/19 06:05:19;;;;;;;20.40;8.02;;;8.10;99.90;;;;;;5073825;28;20039;-83
2021/12/19 06:08:04;;;;;;;21.38;7.03;;;7.10;99.90;;;;;;5059166;28;20094;-82
2021/12/19 06:10:48;;;;;;;21.13;7.75;;;7.10;99.90;;;;;;5073800;28;20064;-83
2021/12/19 06:13:32;;;;;;;15.73;6.55;;;7.10;99.90;;;;;;5073432;28;20678;-81
2021/12/19 06:16:17;;;;;;;22.15;6.35;;;7.10;99.90;;;;;;5073252;28;20048;-81
2021/12/19 06:19:01;;;;;;;;;;;8.10;99.90;;;;;;5074174;28;20098;-80
2021/12/19 06:21:45;;;;;;;33.38;7.10;;;7.20;99.90;;;;;;5073831;28;19915;-80
2021/12/19 06:24:30;;;;;;;20.67;7.57;;;7.20;99.90;;;;;;5073055;28;20413;-80
2021/12/19 06:27:15;;;;;;;22.00;7.47;;;7.20;99.90;;;;;;5072403;28;20036;-82
2021/12/19 06:29:59;;;;;;;;;;;7.10;99.90;;;;;;5074015;28;20043;-80
2021/12/19 06:32:44;;;;;;;20.98;7.13;;;7.30;99.90;;;;;;5072679;28;19961;-80
2021/12/19 06:35:30;;;;;;;24.42;8.35;;;7.20;99.90;;;;;;5072923;28;20043;-80
2021/12/19 06:38:15;;;;;;;24.85;7.55;;;7.70;99.90;;;;;;5073488;28;20036;-80
2021/12/19 06:41:00;;;;;;;17.35;5.93;;;;;;;;;;5072480;28;20103;-80
2021/12/19 06:43:44;;;;;;;14.93;5.57;;;7.10;99.90;;;;;;5073225;28;20039;-80
2021/12/19 06:46:29;;;;;;;17.02;4.97;;;7.80;99.90;;;;;;5072681;28;20090;-80
2021/12/19 06:49:13;;;;;;;14.20;5.13;;;7.20;99.90;;;;;;5072114;28;20067;-80
2021/12/19 06:51:57;;;;;;;17.55;4.82;;;;;;;;;;5058189;28;20048;-80
2021/12/19 06:54:42;;;;;;;22.95;6.35;;;7.10;99.90;;;;;;5072513;28;20098;-80
2021/12/19 06:57:26;;;;;;;16.20;5.60;;;7.00;99.90;;;;;;5071389;28;20597;-80
2021/12/19 07:00:12;;;;;;;;;;;7.20;99.90;;;;;;5072330;28;20499;-80
2021/12/19 07:02:57;;;;;;;17.90;5.68;;;;;;;;;;5071891;28;19920;-80
2021/12/19 07:05:42;;;;;;;20.10;5.50;;;7.20;99.90;;;;;;5071267;28;20039;-80
2021/12/19 07:08:27;;;;;;;17.35;4.90;;;7.10;99.90;;;;;;5072317;28;20105;-80
2021/12/19 07:11:12;;;;;;;14.65;5.35;;;7.10;99.90;;;;;;5072770;28;20102;-80
2021/12/19 07:13:56;;;;;;;21.85;5.50;;;7.40;99.90;;;;;;5072850;28;20046;-80
2021/12/19 07:16:40;;;;;;;;;;;7.10;99.90;;;;;;5072445;28;20236;-80
2021/12/19 07:19:24;;;;;;;15.32;4.95;;;7.10;99.90;;;;;;5071056;28;20315;-80
2021/12/19 07:22:09;;;;;;;15.55;4.78;;;7.10;99.90;;;;;;5057482;28;20040;-79
2021/12/19 07:24:53;;;;;;;15.80;4.28;;;6.90;99.90;;;;;;5058582;28;20150;-80
2021/12/19 07:27:37;;;;;;;16.00;4.25;;;7.10;99.90;;;;;;5070331;28;20063;-81
2021/12/19 07:30:25;;;;;;;15.98;4.22;;;7.30;99.90;;;;;;5070347;28;20098;-80
2021/12/19 07:33:11;;;;;;;13.50;4.07;;;7.10;99.90;;;;;;5070662;28;20087;-81
2021/12/19 07:35:59;;;;;;;18.92;4.00;;;7.20;99.90;;;;;;5065853;28;20040;-80
2021/12/19 07:39:07;;;;;;;13.95;4.47;;;7.50;99.90;;;;;;5069375;28;20046;-81
2021/12/19 07:41:51;;;;;;;13.57;4.45;;;7.10;99.90;;;;;;5067197;28;20093;-80
2021/12/19 07:44:37;;;;;;;15.60;4.90;;;7.10;99.90;;;;;;5054716;28;20054;-81
2021/12/19 07:47:21;;;;;;;19.83;5.10;;;7.10;99.90;;;;;;5070990;28;20365;-80
2021/12/19 07:50:08;;;;;;;16.83;4.07;;;7.70;99.90;;;;;;5071877;28;20093;-80
2021/12/19 07:52:52;;;;;;;17.88;4.22;;;7.10;99.90;;;;;;5070723;28;20083;-80
2021/12/19 07:55:37;;;;;;;13.20;4.47;;;7.10;99.90;;;;;;5070610;28;20038;-81
2021/12/19 07:58:22;;;;;;;12.80;3.97;;;;;;;;;;5067227;28;20499;-80
2021/12/19 08:01:06;;;;;;;15.25;4.05;;;7.10;99.90;;;;;;5056960;28;20500;-80
2021/12/19 08:03:50;;;;;;;15.98;3.88;;;8.00;99.90;;;;;;5056833;28;20112;-81
2021/12/19 08:06:35;;;;;;;16.52;3.83;;;7.10;99.90;;;;;;5067485;28;20074;-80
2021/12/19 08:09:35;;;;;;;16.48;3.80;;;7.10;99.90;;;;;;5060579;28;20115;-80
2021/12/19 08:12:19;;;;;;;14.35;3.42;;;7.10;99.90;;;;;;5070400;28;20052;-80
2021/12/19 08:15:05;;;;;;;15.98;3.63;;;7.10;99.90;;;;;;5071009;28;20036;-80
2021/12/19 08:17:49;;;;;;;15.23;4.70;;;7.10;99.90;;;;;;5071355;28;20609;-80
2021/12/19 08:20:34;;;;;;;13.75;3.88;;;;;;;;;;5056190;28;20407;-80
2021/12/19 08:23:19;;;;;;;16.17;4.55;;;;;;;;;;5071885;28;20040;-80
2021/12/19 08:26:03;;;;;;;15.43;3.75;;;7.10;99.90;;;;;;5071082;28;20051;-80
2021/12/19 08:28:47;;;;;;;12.05;4.13;;;7.10;99.90;;;;;;5055949;28;20039;-80
2021/12/19 08:31:31;;;;;;;;;;;7.10;99.90;;;;;;5071542;28;20084;-81
2021/12/19 08:34:16;;;;;;;11.45;3.53;;;7.90;99.90;;;;;;5071794;28;19920;-80
2021/12/19 08:37:02;;;;;;;18.02;3.38;;;7.00;99.90;;;;;;5056538;28;20039;-80
2021/12/19 08:39:46;;;;;;;16.05;2.95;;;7.10;99.90;;;;;;5070117;28;20093;-79
2021/12/19 08:42:33;;;;;;;10.82;3.67;;;;;;;;;;5070560;28;20086;-80
2021/12/19 08:45:17;;;;;;;14.82;3.30;;;7.10;99.90;;;;;;5056859;28;20444;-79
2021/12/19 08:48:03;;;;;;;16.63;4.05;;;8.70;99.90;;;;;;5070694;28;20071;-79
2021/12/19 08:50:48;;;;;;;17.98;3.35;;;7.20;99.90;;;;;;5055991;28;20103;-80
2021/12/19 08:53:33;;;;;;;11.57;3.85;;;;;;;;;;5071301;28;20098;-84
2021/12/19 08:56:18;;;;;;;14.15;3.95;;;7.20;99.90;;;;;;5071913;28;20039;-81
2021/12/19 08:59:03;;;;;;;16.83;3.90;;;;;;;;;;5074504;28;20074;-79
2021/12/19 09:01:48;;;;;;;17.20;4.55;;;;;;;;;;5073516;28;20086;-80
2021/12/19 09:04:33;;;;;;;16.70;3.90;;;;;;;;;;5060091;28;20066;-80
2021/12/19 09:07:18;;;;;;;15.10;3.50;;;7.30;99.90;;;;;;5075138;28;20043;-78
2021/12/19 09:10:04;;;;;;;17.70;3.45;;;7.30;99.90;;;;;;5074955;28;20048;-78
2021/12/19 09:12:49;;;;;;;16.63;3.10;;;;;;;;;;5072032;28;20090;-79
2021/12/19 09:15:34;;;;;;;11.20;3.00;;;7.30;99.90;;;;;;5069603;28;20127;-78
2021/12/19 09:18:18;;;;;;;;;;;7.30;99.90;;;;;;5074909;28;20171;-78
2021/12/19 09:21:03;;;;;;;14.40;3.25;;;7.30;99.90;;;;;;5074879;28;19931;-80
2021/12/19 09:23:47;;;;;;;13.77;3.60;;;7.30;99.90;;;;;;5074348;28;20495;-78
2021/12/19 09:26:31;;;;;;;9.45;3.05;;;7.40;99.90;;;;;;5074388;28;20031;-78
2021/12/19 09:29:15;;;;;;;;;;;7.40;99.90;;;;;;5073474;28;20397;-78
2021/12/19 09:31:59;;;;;;;7.60;2.60;;;7.40;99.90;;;;;;5073428;28;19965;-78
2021/12/19 09:34:44;;;;;;;17.45;3.22;;;7.40;99.90;;;;;;5058308;28;20082;-78
2021/12/19 09:37:29;;;;;;;;;;;7.50;99.90;;;;;;5075028;28;20043;-78
2021/12/19 09:40:24;;;;;;;8.82;2.28;;;7.40;99.90;;;;;;5054478;28;19943;-80
2021/12/19 09:43:31;;;;;;;10.73;2.40;;;8.40;99.90;;;;;;5054594;28;20090;-79
2021/12/19 09:46:19;;;;;;;16.08;3.17;;;7.50;99.90;;;;;;5054640;28;20489;-79
2021/12/19 09:49:06;;;;;;;13.50;2.78;;;8.10;99.90;;;;;;5067012;28;20043;-79
2021/12/19 09:51:52;;;;;;;12.82;2.95;;;;;;;;;;5073263;28;20043;-80
2021/12/19 09:54:39;;;;;;;10.65;2.67;;;7.40;99.90;;;;;;5074398;28;20086;-79
2021/12/19 09:57:24;;;;;;;12.05;2.85;;;;;;;;;;5074276;28;20044;-79
2021/12/19 10:00:09;;;;;;;13.73;2.40;;;7.50;99.90;;;;;;5073178;28;20048;-80
2021/12/19 10:02:54;;;;;;;8.23;2.03;;;;;;;;;;5073596;28;20051;-80
2021/12/19 10:05:38;;;;;;;12.55;3.25;;;7.50;99.90;;;;;;5073774;28;20040;-80
2021/12/19 10:08:23;;;;;;;14.25;2.33;;;7.50;99.90;;;;;;5072858;28;20098;-79
2021/12/19 10:11:42;;;;;;;17.27;2.75;;;7.80;99.90;;;;;;5072447;28;20455;-80
2021/12/19 10:14:27;;;;;;;13.25;2.47;;;;;;;;;;5074129;28;20412;-81
2021/12/19 10:17:19;;;;;;;15.65;3.03;;;7.80;99.90;;;;;;5073562;28;20032;-80
2021/12/19 10:20:07;;;;;;;12.65;3.40;;;7.80;99.90;;;;;;5063018;28;20036;-80
2021/12/19 10:22:51;;;;;;;10.00;2.72;;;;;;;;;;5071631;28;20408;-80
2021/12/19 10:25:35;;;;;;;11.25;3.50;;;7.60;99.90;;;;;;5072798;28;20044;-80
2021/12/19 10:28:19;;;;;;;;;;;7.70;99.90;;;;;;5074087;28;20039;-80
2021/12/19 10:31:04;;;;;;;11.93;2.03;;;;;;;;;;5072959;28;19918;-80
2021/12/19 10:33:48;;;;;;;11.80;3.40;;;7.60;99.90;;;;;;5073153;28;20499;-81
2021/12/19 10:36:42;;;;;;;14.75;4.88;;;7.60;99.90;;;;;;5073608;28;20103;-80
2021/12/19 10:39:36;;;;;;;12.23;3.90;;;7.60;99.90;;;;;;5072487;28;20051;-80
2021/12/19 10:42:21;;;;;;;20.45;4.15;;;7.30;99.90;;;;;;5073448;28;20110;-80
2021/12/19 10:48:23;;;;;;;15.23;3.15;;;7.50;99.90;;;;;;5071937;28;20048;-81
2021/12/19 10:51:19;;;;;;;19.17;3.45;;;7.70;99.90;;;;;;5071459;28;20491;-80
2021/12/19 10:54:07;;;;;;;12.15;3.20;;;7.70;99.90;;;;;;5071630;28;20062;-80
2021/12/19 10:57:09;;;;;;;14.85;3.00;;;7.70;99.90;;;;;;5071756;28;20043;-81
2021/12/19 10:59:54;;;;;;;14.30;3.30;;;;;;;;;;5072515;28;20047;-81
2021/12/19 11:02:43;;;;;;;9.93;3.40;;;7.90;99.90;;;;;;5057951;28;20035;-81
2021/12/19 11:05:42;;;;;;;19.60;3.65;;;7.70;99.90;;;;;;5071985;28;20085;-81
2021/12/19 11:08:33;;;;;;;15.05;3.83;;;9.20;99.90;;;;;;5073039;28;20043;-81
2021/12/19 11:11:39;;;;;;;19.08;4.07;;;8.70;99.90;;;;;;5072537;28;20524;-80
2021/12/19 11:14:29;;;;;;;15.32;2.83;;;7.70;99.90;;;;;;5071759;28;20034;-81
2021/12/19 11:17:22;;;;;;;17.08;4.57;;;7.70;99.90;;;;;;5071134;28;20036;-81
2021/12/19 11:20:06;;;;;;;9.77;3.60;;;7.80;99.90;;;;;;5070514;28;20111;-80
2021/12/19 11:22:50;;;;;;;15.13;2.88;;;7.80;99.90;;;;;;5071538;28;20040;-80
2021/12/19 11:25:36;;;;;;;15.50;3.03;;;7.70;99.90;;;;;;5071644;28;20043;-80
2021/12/19 11:28:21;;;;;;;20.17;3.33;;;;;;;;;;5072540;28;20054;-80
2021/12/19 11:31:06;;;;;;;144.10;16.48;;;7.70;99.90;;;;;;5071941;28;20503;-81
2021/12/19 11:33:51;;;;;;;40.17;5.13;;;;;;;;;;5071411;28;20094;-81
2021/12/19 11:36:41;;;;;;;17.50;3.20;;;7.80;99.90;;;;;;5071575;28;20047;-80
2021/12/19 11:39:29;;;;;;;15.95;3.28;;;7.90;99.90;;;;;;5071650;28;20047;-81
2021/12/19 11:42:17;;;;;;;13.88;2.83;;;7.80;99.90;;;;;;5071764;28;20082;-81
2021/12/19 11:51:17;;;;;;;19.23;3.78;;;7.90;99.90;;;;;;5071659;28;20124;-81
2021/12/19 11:54:19;;;;;;;19.33;4.25;;;7.90;99.90;;;;;;5070544;28;20056;-82
2021/12/19 11:57:08;;;;;;;17.48;2.55;;;7.90;99.90;;;;;;5071579;28;20090;-81
2021/12/19 12:00:32;;;;;;;19.23;3.92;;;7.90;99.90;;;;;;5071122;28;20085;-81
2021/12/19 12:03:21;;;;;;;10.48;2.28;;;8.00;99.90;;;;;;5071487;28;20119;-82
2021/12/19 12:06:06;;;;;;;15.35;3.60;;;;;;;;;;5071540;28;20086;-89
2021/12/19 12:09:09;;;;;;;14.82;2.78;;;7.90;99.90;;;;;;5070309;28;20101;-82
2021/12/19 12:12:09;;;;;;;24.65;5.03;;;9.20;99.90;;;;;;5071218;28;20171;-83
2021/12/19 12:14:56;;;;;;;20.15;3.67;;;7.90;99.90;;;;;;5071184;28;20044;-83
2021/12/19 12:17:49;;;;;;;14.88;2.80;;;;;;;;;;5060539;28;20052;-83
2021/12/19 12:20:37;;;;;;;17.27;2.95;;;;;;;;;;5083582;28;20485;-83
2021/12/19 12:23:26;;;;;;;17.35;3.38;;;8.00;99.90;;;;;;5064723;28;20039;-81
2021/12/19 12:26:55;;;;;;;17.77;3.63;;;7.80;99.90;;;;;;5051363;28;20048;-82
2021/12/19 12:29:40;;;;;;;23.15;2.95;;;8.00;99.90;;;;;;5051740;28;20090;-81
2021/12/19 12:32:24;;;;;;;17.38;3.65;;;8.00;99.90;;;;;;5054689;28;20495;-82
2021/12/19 12:35:11;;;;;;;16.38;3.45;;;8.00;99.90;;;;;;5054227;28;20036;-82
2021/12/19 12:37:56;;;;;;;25.08;5.05;;;8.00;99.90;;;;;;5055772;28;20044;-83
2021/12/19 12:41:08;;;;;;;20.30;4.22;;;8.00;99.90;;;;;;5054812;28;20051;-84
2021/12/19 12:43:53;;;;;;;21.25;4.22;;;8.00;99.90;;;;;;5054683;28;20090;-84
2021/12/19 12:46:38;;;;;;;15.10;3.55;;;8.00;99.90;;;;;;5055412;28;20044;-82
2021/12/19 12:49:25;;;;;;;20.58;4.03;;;8.00;99.90;;;;;;5054715;28;20048;-82
2021/12/19 12:52:10;;;;;;;15.70;3.10;;;8.00;99.90;;;;;;5054920;28;20040;-82
2021/12/19 12:55:01;;;;;;;14.32;2.95;;;8.00;99.90;;;;;;5055253;28;20116;-82
2021/12/19 12:57:46;;;;;;;19.45;3.15;;;8.10;99.90;;;;;;5054459;28;20124;-81
2021/12/19 13:00:30;;;;;;;18.67;3.13;;;;;;;;;;5054886;28;20048;-81
2021/12/19 13:03:28;;;;;;;23.42;4.78;;;8.10;99.90;;;;;;5053714;28;20584;-81
2021/12/19 13:06:13;;;;;;;18.60;3.30;;;8.10;99.90;;;;;;5066133;28;20115;-82
2021/12/19 13:09:21;;;;;;;20.58;3.67;;;8.10;99.90;;;;;;5054096;28;20052;-81
2021/12/19 13:12:11;;;;;;;23.48;4.53;;;8.10;99.90;;;;;;5055372;28;20056;-81
2021/12/19 13:15:09;;;;;;;16.70;3.85;;;8.00;99.90;;;;;;5054079;28;20055;-81
2021/12/19 13:17:54;;;;;;;19.73;3.55;;;;;;;;;;5055144;28;20032;-81
2021/12/19 13:20:38;;;;;;;14.93;3.22;;;;;;;;;;5055037;28;20455;-81
2021/12/19 13:23:23;;;;;;;20.58;3.85;;;;;;;;;;5053369;28;20489;-81
2021/12/19 13:26:07;;;;;;;17.20;3.55;;;8.10;99.90;;;;;;5053788;28;20043;-81
2021/12/19 13:28:52;;;;;;;20.27;3.33;;;8.10;99.90;;;;;;5067874;28;20413;-81
2021/12/19 13:31:36;;;;;;;16.17;3.08;;;8.10;99.90;;;;;;5054529;28;20071;-81
2021/12/19 13:34:20;;;;;;;13.93;3.20;;;8.40;99.90;;;;;;5053153;28;20083;-81
2021/12/19 13:37:04;;;;;;;17.20;3.58;;;8.20;99.90;;;;;;5053585;28;20091;-81
2021/12/19 13:40:12;;;;;;;17.55;3.05;;;8.10;99.90;;;;;;5054622;28;20083;-81
2021/12/19 13:43:06;;;;;;;16.67;5.03;;;8.10;99.90;;;;;;5053960;28;20139;-81
2021/12/19 13:45:55;;;;;;;21.02;4.47;;;8.10;99.90;;;;;;5054486;28;20051;-81
2021/12/19 13:48:41;;;;;;;21.42;4.45;;;8.70;99.90;;;;;;5054548;28;20114;-81
2021/12/19 13:51:28;;;;;;;20.50;3.85;;;8.10;99.90;;;;;;5053831;28;20117;-81
2021/12/19 13:54:13;;;;;;;25.45;4.20;;;8.10;99.90;;;;;;5053161;28;20040;-82
2021/12/19 13:56:57;;;;;;;23.38;5.80;;;8.10;99.90;;;;;;5067377;28;20508;-81
2021/12/19 13:59:41;;;;;;;18.58;4.65;;;8.10;99.90;;;;;;5067393;28;20404;-80
2021/12/19 14:02:25;;;;;;;;;;;8.10;99.90;;;;;;5054011;28;20040;-80
2021/12/19 14:05:30;;;;;;;17.95;3.92;;;8.10;99.90;;;;;;5054501;28;19916;-80
2021/12/19 14:08:22;;;;;;;22.83;3.75;;;8.10;99.90;;;;;;5052986;28;20040;-80
2021/12/19 14:11:11;;;;;;;17.42;4.13;;;8.10;99.90;;;;;;5052790;28;20066;-80
2021/12/19 14:14:12;;;;;;;17.98;3.25;;;8.10;99.90;;;;;;5053978;28;20556;-80
2021/12/19 14:16:58;;;;;;;14.70;3.45;;;8.20;99.90;;;;;;5052915;28;20040;-80
2021/12/19 14:19:49;;;;;;;19.65;3.20;;;8.20;99.90;;;;;;5054079;28;20137;-80
2021/12/19 14:22:33;;;;;;;22.42;3.50;;;8.20;99.90;;;;;;5053203;28;20040;-80
2021/12/19 14:25:26;;;;;;;17.23;3.85;;;8.20;99.90;;;;;;5052328;28;20488;-81
2021/12/19 14:28:18;;;;;;;17.55;3.70;;;8.70;99.90;;;;;;5052857;28;20443;-81
2021/12/19 14:31:06;;;;;;;13.02;2.92;;;8.10;99.90;;;;;;5052618;28;20067;-80
2021/12/19 14:33:50;;;;;;;15.02;2.25;;;8.10;99.90;;;;;;5053796;28;20094;-81
2021/12/19 14:36:34;;;;;;;10.52;2.15;;;8.10;99.90;;;;;;5053022;28;20064;-81
2021/12/19 14:39:24;;;;;;;11.68;1.95;;;8.70;99.90;;;;;;5066217;28;20048;-81
2021/12/19 14:42:14;;;;;;;10.27;2.00;;;8.10;99.90;;;;;;5053494;28;20170;-80
2021/12/19 14:45:01;;;;;;;7.15;1.65;;;8.00;99.90;;;;;;5052553;28;20036;-80
2021/12/19 14:47:50;;;;;;;9.93;1.65;;;8.10;99.90;;;;;;5052387;28;20035;-80
2021/12/19 14:50:54;;;;;;;8.18;1.40;;;8.00;99.90;;;;;;5052744;28;20047;-80
2021/12/19 14:53:42;;;;;;;;;;;8.00;99.90;;;;;;5051277;28;20070;-80
2021/12/19 14:56:29;;;;;;;5.47;2.00;;;8.00;99.90;;;;;;5051519;28;19923;-80
2021/12/19 14:59:17;;;;;;;8.05;1.17;;;7.90;99.90;;;;;;5052216;28;20044;-80
2021/12/19 15:02:05;;;;;;;5.60;1.33;;;7.80;99.90;;;;;;5053268;28;20451;-80
2021/12/19 15:04:50;;;;;;;6.07;1.30;;;7.80;99.90;;;;;;5065323;28;20036;-81
2021/12/19 15:07:36;;;;;;;11.50;2.15;;;7.80;99.90;;;;;;5051393;28;20048;-82
2021/12/19 15:10:22;;;;;;;4.93;1.42;;;7.80;99.90;;;;;;5052794;28;20063;-82
2021/12/19 15:13:06;;;;;;;8.25;1.50;;;7.80;99.90;;;;;;5053045;28;20033;-81
2021/12/19 15:15:50;;;;;;;10.25;1.58;;;7.80;99.90;;;;;;5052889;28;20044;-82
2021/12/19 15:18:35;;;;;;;7.20;2.22;;;7.80;99.90;;;;;;5052253;28;20043;-82
2021/12/19 15:21:19;;;;;;;7.22;1.65;;;7.80;99.90;;;;;;5052833;28;20044;-81
2021/12/19 15:24:05;;;;;;;14.07;2.47;;;7.80;99.90;;;;;;5065869;28;20507;-81
2021/12/19 15:26:49;;;;;;;6.97;1.63;;;7.70;99.90;;;;;;5052397;28;20040;-81
2021/12/19 15:29:33;;;;;;;;;;;8.00;99.90;;;;;;5052545;28;20091;-81
2021/12/19 15:32:17;;;;;;;5.35;1.33;;;7.70;99.90;;;;;;5065326;28;19967;-82
2021/12/19 15:35:04;;;;;;;7.50;1.60;;;7.80;99.90;;;;;;5061070;28;20109;-82
2021/12/19 15:37:49;;;;;;;8.82;1.80;;;7.70;99.90;;;;;;5059233;28;20071;-81
2021/12/19 15:40:33;;;;;;;14.57;1.98;;;7.70;99.90;;;;;;5070117;28;20494;-82
2021/12/19 15:43:18;;;;;;;8.10;1.70;;;7.70;99.90;;;;;;5050477;28;20438;-83
2021/12/19 15:46:03;;;;;;;14.15;1.75;;;7.70;99.90;;;;;;5059873;28;20095;-82
2021/12/19 15:48:47;;;;;;;7.60;1.40;;;7.70;99.90;;;;;;5069672;28;20043;-82
2021/12/19 15:51:32;;;;;;;13.07;3.08;;;7.60;99.90;;;;;;5069542;28;20129;-83
2021/12/19 15:54:16;;;;;;;13.02;1.95;;;7.60;99.90;;;;;;5055993;28;20476;-83
2021/12/19 15:57:02;;;;;;;6.70;1.50;;;8.80;99.90;;;;;;5070358;28;20072;-82
2021/12/19 15:59:48;;;;;;;9.60;1.88;;;7.60;99.90;;;;;;5069895;28;20114;-83